PWSweather.com
Personal Weather Stations
Station Observations
KVAGLENALL
West Henrico, Glen Allen, VA 23060-6503

West HenricoGlen Allen, VA 23060-6503

Lat: 37.6554, Lon: -77.5693

Elevation: 273

Station Type: Davis Vantage Pro II

www.glenallenweather.com

High Low Average
Temperature 75.9°F24.4°C 67.7°F19.8°C 71.9°F22.2°C
Dew Point 69.6°F20.9°C 60.4°F15.8°C 67.0°F19.4°C
Winds 6.0 mph 9.7 kmh Calm Calm 3.0 mph E4.8 kmh E
Wind Gusts 11.1 mph17.9 kmh -- 6.0 mph9.7 kmh
Humidity 97% 71% 85%
Pressure 30.10 in1019.3 mb 29.93 in1013.5 mb -
Precipitation 0.00 in0.0 mm - -
Hour Temp Dew Point Humidity Winds Wind Gusts Pressure Precip Precip Rate Daily Precip Total
12:00 AM 69.7°F20.9°C 68.5°F20.3°C 96% 3.0 mph NNE4.8 kmh NNE 4.0 mph6.4 kmh 29.94 in1013.9 mb 0.02 in0.5 mm 0.00 in0.0 mm 0.02 in0.5 mm
01:00 AM 70.2°F21.2°C 69.3°F20.7°C 97% 2.0 mph SE3.2 kmh SE 8.1 mph13.0 kmh 29.93 in1013.5 mb 0.07 in1.8 mm 0.00 in0.0 mm 0.07 in1.8 mm
02:00 AM 69.9°F21.1°C 68.7°F20.4°C 96% 3.0 mph ESE4.8 kmh ESE 4.0 mph6.4 kmh 29.93 in1013.5 mb 0.03 in0.8 mm 0.00 in0.0 mm 0.07 in1.8 mm
03:00 AM 70.0°F21.1°C 69.1°F20.6°C 97% 2.0 mph ENE3.2 kmh ENE 9.1 mph14.6 kmh 29.94 in1013.9 mb 0.03 in0.8 mm 0.00 in0.0 mm 0.07 in1.8 mm
04:00 AM 69.7°F20.9°C 68.8°F20.4°C 97% 3.0 mph E4.8 kmh E 5.1 mph8.2 kmh 29.95 in1014.2 mb 0.05 in1.3 mm 0.00 in0.0 mm 0.09 in2.3 mm
05:00 AM 69.2°F20.7°C 68.4°F20.2°C 97% 3.0 mph SE4.8 kmh SE 4.0 mph6.4 kmh 29.96 in1014.6 mb 0.07 in1.8 mm 0.00 in0.0 mm 0.11 in2.8 mm
06:00 AM 67.7°F19.8°C 66.6°F19.2°C 96% Calm Calm -- 29.97 in1014.9 mb 0.14 in3.6 mm 0.00 in0.0 mm 0.18 in4.6 mm
07:00 AM 68.2°F20.1°C 67.4°F19.7°C 97% 1.0 mph NE1.6 kmh NE 6.1 mph9.8 kmh 30.00 in1015.9 mb 0.07 in1.8 mm 0.00 in0.0 mm 0.18 in4.6 mm
08:00 AM 68.5°F20.3°C 67.4°F19.7°C 96% 3.0 mph NNE4.8 kmh NNE 4.0 mph6.4 kmh 30.00 in1015.9 mb 0.05 in1.3 mm 0.00 in0.0 mm 0.18 in4.6 mm
09:00 AM 69.4°F20.8°C 67.2°F19.6°C 93% 3.0 mph NNE4.8 kmh NNE 4.0 mph6.4 kmh 30.02 in1016.6 mb 0.00 in0.0 mm 0.00 in0.0 mm 0.18 in4.6 mm
10:00 AM 71.1°F21.7°C 67.7°F19.8°C 89% 4.0 mph NE6.4 kmh NE 7.1 mph11.4 kmh 30.02 in1016.6 mb 0.00 in0.0 mm 0.00 in0.0 mm 0.18 in4.6 mm
11:00 AM 73.5°F23.1°C 68.0°F20.0°C 83% 5.0 mph E8.0 kmh E 11.1 mph17.9 kmh 30.03 in1016.9 mb 0.00 in0.0 mm 0.00 in0.0 mm 0.18 in4.6 mm
12:00 PM 75.3°F24.1°C 67.6°F19.8°C 77% 2.0 mph ESE3.2 kmh ESE 9.1 mph14.6 kmh 30.05 in1017.6 mb 0.00 in0.0 mm 0.00 in0.0 mm 0.18 in4.6 mm
01:00 PM 75.6°F24.2°C 67.1°F19.5°C 75% 3.0 mph E4.8 kmh E 6.1 mph9.8 kmh 30.07 in1018.3 mb 0.00 in0.0 mm 0.00 in0.0 mm 0.18 in4.6 mm
02:00 PM 75.9°F24.4°C 67.8°F19.9°C 76% 4.0 mph SE6.4 kmh SE 8.1 mph13.0 kmh 30.07 in1018.3 mb 0.00 in0.0 mm 0.00 in0.0 mm 0.18 in4.6 mm
03:00 PM 75.3°F24.1°C 68.3°F20.2°C 79% 4.0 mph SE6.4 kmh SE 4.0 mph6.4 kmh 30.06 in1017.9 mb 0.00 in0.0 mm 0.00 in0.0 mm 0.18 in4.6 mm
04:00 PM 75.5°F24.2°C 69.6°F20.9°C 82% Calm Calm 3.0 mph4.8 kmh 30.04 in1017.3 mb 0.00 in0.0 mm 0.00 in0.0 mm 0.18 in4.6 mm
05:00 PM 75.2°F24.0°C 69.0°F20.6°C 81% 3.0 mph SSE4.8 kmh SSE 4.0 mph6.4 kmh 30.05 in1017.6 mb 0.00 in0.0 mm 0.00 in0.0 mm 0.18 in4.6 mm
06:00 PM 74.7°F23.7°C 68.8°F20.4°C 82% 3.0 mph E4.8 kmh E 3.0 mph4.8 kmh 30.06 in1017.9 mb 0.00 in0.0 mm 0.00 in0.0 mm 0.18 in4.6 mm
07:00 PM 74.3°F23.5°C 69.5°F20.8°C 85% 4.0 mph SE6.4 kmh SE 7.1 mph11.4 kmh 30.07 in1018.3 mb 0.00 in0.0 mm 0.00 in0.0 mm 0.18 in4.6 mm
08:00 PM 73.0°F22.8°C 66.1°F18.9°C 79% 6.0 mph ENE9.7 kmh ENE 9.1 mph14.6 kmh 30.08 in1018.6 mb 0.00 in0.0 mm 0.00 in0.0 mm 0.18 in4.6 mm
09:00 PM 71.9°F22.2°C 63.9°F17.7°C 76% 1.0 mph S1.6 kmh S 5.1 mph8.2 kmh 30.07 in1018.3 mb 0.00 in0.0 mm 0.00 in0.0 mm 0.18 in4.6 mm
10:00 PM 71.1°F21.7°C 61.2°F16.2°C 71% Calm Calm 11.1 mph17.9 kmh 30.09 in1019.0 mb 0.00 in0.0 mm 0.00 in0.0 mm 0.18 in4.6 mm
11:00 PM 70.3°F21.3°C 60.4°F15.8°C 71% 4.0 mph N6.4 kmh N 4.0 mph6.4 kmh 30.10 in1019.3 mb 0.00 in0.0 mm 0.00 in0.0 mm 0.18 in4.6 mm